< < Back
Terminal Aerodrome Forecast


Current Version              Previous Versions:   1  2  3  4  5  6  7  8  9  

Terminal Aerodrome Forecast

940
FTUS42 KGSP 051231 AAA
TAFCLT
TAF AMD
KCLT 051231Z 0513/0612 03005KT P6SM BKN008 OVC030
     FM051400 04008KT P6SM VCSH OVC030
     FM051600 03010KT P6SM BKN045
      TEMPO 0517/0521 4SM TSRA BKN040CB
     FM052100 03011KT P6SM BKN050 PROB30 0522/0602 4SM TSRA BKN035CB
     FM060200 05011KT P6SM BKN060
     FM060600 05008KT P6SM OVC025
     FM060900 05007KT P6SM OVC015=

Latest METAR

594
SAUS70 KWBC 051556
MTRCLT
METAR KCLT 051552Z 02009KT 10SM BKN030 BKN140 27/18 A3019 RMK AO2 SLP216
T02670183


USA.gov is the U.S. government's official web portal to all federal, state and local government web resources and services.